Terminal Aerodrome Forecast
Issued by NWS

Home | Current Version | Previous Version | Text Only | Print | Product List | Glossary On
Versions: 1 2 3 4 5 6 7 8 9 10 11 12 13
148
FTUS45 KPSR 262326
TAFIPL
TAF
KIPL 262326Z 2700/2724 11008KT P6SM FEW120 BKN250
     FM270800 VRB05KT P6SM FEW120 OVC200
     FM271800 03014KT P6SM BKN200=

USA.gov is the U.S. government's official web portal to all federal, state and local government web resources and services.